Time;durP1;ratioP1;P1;durP2;ratioP2;P2;SDS_P1;SDS_P2;PMS_P1;PMS_P2;Temp;Humidity;BMP_temperature;BMP_pressure;BME280_temperature;BME280_humidity;BME280_pressure;Samples;Min_cycle;Max_cycle;Signal;HPM_P1;HPM_P2
2023/12/20 00:00:02;;;;;;;65.93;36.23;;;;;;;-0.26;100.00;100601.45;1460593;88;21717;-79
2023/12/20 00:02:29;;;;;;;67.63;34.33;;;;;;;-0.27;100.00;100595.88;1463720;88;21887;-79
2023/12/20 00:04:55;;;;;;;71.97;37.27;;;;;;;-0.26;100.00;100600.14;1471093;88;21565;-80
2023/12/20 00:07:21;;;;;;;67.30;36.33;;;;;;;-0.24;100.00;100597.02;1478992;88;21711;-80
2023/12/20 00:09:48;;;;;;;69.00;34.83;;;;;;;-0.19;100.00;100611.95;1480300;88;21701;-80
2023/12/20 00:12:14;;;;;;;66.00;37.07;;;;;;;-0.18;100.00;100599.78;1479051;88;21785;-79
2023/12/20 00:14:40;;;;;;;65.43;35.50;;;;;;;-0.18;100.00;100586.31;1474951;88;22676;-79
2023/12/20 00:17:07;;;;;;;62.07;34.33;;;;;;;-0.22;100.00;100583.48;1478771;88;21605;-80
2023/12/20 00:19:33;;;;;;;71.20;36.13;;;;;;;-0.25;100.00;100577.97;1478010;88;21680;-80
2023/12/20 00:22:00;;;;;;;72.27;37.53;;;;;;;-0.27;100.00;100581.56;1475897;88;23034;-80
2023/12/20 00:24:26;;;;;;;79.07;41.10;;;;;;;-0.28;100.00;100581.19;1473521;88;21765;-80
2023/12/20 00:26:52;;;;;;;77.93;40.67;;;;;;;-0.26;100.00;100568.93;1465277;88;21493;-79
2023/12/20 00:29:18;;;;;;;79.40;39.93;;;;;;;-0.23;100.00;100567.52;1475933;88;21813;-79
2023/12/20 00:31:44;;;;;;;82.73;43.07;;;;;;;-0.19;100.00;100556.02;1452796;88;21784;-80
2023/12/20 00:34:11;;;;;;;89.40;42.20;;;;;;;-0.18;100.00;100544.69;1469961;88;21642;-77
2023/12/20 00:36:37;;;;;;;94.53;43.90;;;;;;;-0.16;100.00;100545.47;1472552;88;21778;-79
2023/12/20 00:39:04;;;;;;;90.77;42.70;;;;;;;-0.18;100.00;100538.19;1471863;88;21718;-79
2023/12/20 00:41:30;;;;;;;95.97;45.63;;;;;;;-0.18;100.00;100532.98;1478256;88;21548;-79
2023/12/20 00:43:56;;;;;;;86.43;45.40;;;;;;;-0.18;100.00;100531.68;1476143;88;21710;-78
2023/12/20 00:46:22;;;;;;;81.07;42.37;;;;;;;-0.15;100.00;100534.59;1467063;88;21538;-79
2023/12/20 00:48:48;;;;;;;85.57;42.97;;;;;;;-0.15;100.00;100531.53;1476974;88;22246;-81
2023/12/20 00:51:15;;;;;;;82.03;39.67;;;;;;;-0.12;100.00;100526.63;1481718;88;21600;-81
2023/12/20 00:53:41;;;;;;;86.87;41.03;;;;;;;-0.10;100.00;100515.70;1479363;88;21962;-81
2023/12/20 00:56:07;;;;;;;84.50;43.33;;;;;;;-0.12;100.00;100513.62;1477598;88;21590;-81
2023/12/20 00:58:34;;;;;;;83.03;38.77;;;;;;;-0.12;100.00;100519.66;1456378;88;21693;-80
2023/12/20 01:01:00;;;;;;;87.00;45.13;;;;;;;-0.13;100.00;100512.79;1456327;89;22571;-80
2023/12/20 01:03:26;;;;;;;76.37;41.37;;;;;;;-0.14;100.00;100509.81;1452486;89;22205;-79
2023/12/20 01:05:52;;;;;;;66.33;34.57;;;;;;;-0.10;100.00;100507.89;1459452;89;21750;-80
2023/12/20 01:08:19;;;;;;;81.13;39.03;;;;;;;-0.11;100.00;100504.45;1455931;89;21537;-79
2023/12/20 01:10:46;;;;;;;84.27;41.63;;;;;;;-0.11;100.00;100498.41;1451504;89;21686;-79
2023/12/20 01:13:12;;;;;;;84.77;37.67;;;;;;;-0.10;100.00;100486.61;1456057;89;21671;-78
2023/12/20 01:15:39;;;;;;;85.40;41.13;;;;;;;-0.08;100.00;100476.98;1460172;89;21603;-79
2023/12/20 01:18:05;;;;;;;67.47;33.30;;;;;;;-0.11;100.00;100473.23;1459821;89;21798;-78
2023/12/20 01:20:31;;;;;;;72.93;37.97;;;;;;;-0.12;100.00;100474.13;1445617;89;21605;-79
2023/12/20 01:22:57;;;;;;;75.03;38.07;;;;;;;-0.13;100.00;100476.36;1446856;89;21621;-79
2023/12/20 01:25:23;;;;;;;68.07;34.57;;;;;;;-0.12;100.00;100463.73;1456309;89;21569;-79
2023/12/20 01:27:50;;;;;;;71.57;36.67;;;;;;;-0.10;100.00;100463.66;1460703;89;21604;-79
2023/12/20 01:30:17;;;;;;;92.40;41.40;;;;;;;-0.14;100.00;100459.08;1461706;89;21654;-78
2023/12/20 01:32:43;;;;;;;78.70;40.37;;;;;;;-0.17;100.00;100460.55;1446356;89;21709;-79
2023/12/20 01:35:09;;;;;;;70.30;39.23;;;;;;;-0.16;100.00;100461.38;1457403;89;21593;-79
2023/12/20 01:37:35;;;;;;;69.70;37.33;;;;;;;-0.20;100.00;100456.80;1464727;89;21457;-78
2023/12/20 01:40:02;;;;;;;81.40;41.90;;;;;;;-0.22;100.00;100444.79;1464980;89;21557;-78
2023/12/20 01:42:28;;;;;;;85.13;43.80;;;;;;;-0.20;100.00;100442.92;1454851;89;21766;-78
2023/12/20 01:44:55;;;;;;;80.50;40.43;;;;;;;-0.19;100.00;100438.96;1456852;89;22405;-79
2023/12/20 01:47:22;;;;;;;78.10;38.73;;;;;;;-0.16;100.00;100437.50;1456887;89;21576;-77
2023/12/20 01:49:49;;;;;;;108.17;45.90;;;;;;;-0.14;100.00;100429.16;1459765;89;21768;-78
2023/12/20 01:52:17;;;;;;;95.23;42.93;;;;;;;-0.15;100.00;100433.97;1454890;89;21376;-78
2023/12/20 01:54:44;;;;;;;90.70;43.57;;;;;;;-0.20;100.00;100430.78;1451335;89;22619;-78
2023/12/20 01:57:10;;;;;;;83.30;43.23;;;;;;;-0.23;100.00;100429.64;1445008;89;21655;-78
2023/12/20 01:59:40;;;;;;;88.37;46.30;;;;;;;-0.21;100.00;100426.95;1460127;89;21485;-78
2023/12/20 02:02:08;;;;;;;79.53;42.93;;;;;;;-0.19;100.00;100422.05;1474867;88;22614;-78
2023/12/20 02:04:34;;;;;;;82.70;42.33;;;;;;;-0.18;100.00;100415.92;1478183;88;21784;-78
2023/12/20 02:07:03;;;;;;;104.67;45.13;;;;;;;-0.17;100.00;100417.63;1483122;88;21566;-79
2023/12/20 02:09:29;;;;;;;91.53;42.20;;;;;;;-0.20;100.00;100422.12;1479962;88;21768;-78
2023/12/20 02:11:55;;;;;;;92.93;46.50;;;;;;;-0.21;100.00;100410.05;1486159;88;21660;-79
2023/12/20 02:14:22;;;;;;;75.40;41.60;;;;;;;-0.23;100.00;100407.53;1490576;88;21658;-79
2023/12/20 02:16:48;;;;;;;74.60;38.37;;;;;;;-0.25;100.00;100396.36;1484403;88;21562;-79
2023/12/20 02:19:15;;;;;;;71.07;35.13;;;;;;;-0.25;100.00;100395.06;1482383;88;21588;-80
2023/12/20 02:21:41;;;;;;;71.20;37.23;;;;;;;-0.26;100.00;100394.23;1480980;88;21531;-80
2023/12/20 02:24:08;;;;;;;76.53;37.63;;;;;;;-0.24;100.00;100396.73;1481905;88;21718;-80
2023/12/20 02:26:34;;;;;;;100.33;40.10;;;;;;;-0.24;100.00;100394.13;1475097;88;21634;-80
2023/12/20 02:29:01;;;;;;;78.73;38.67;;;;;;;-0.24;100.00;100392.83;1485441;88;22277;-80
2023/12/20 02:31:27;;;;;;;86.80;43.60;;;;;;;-0.24;100.00;100383.27;1455456;88;21584;-80
2023/12/20 02:33:53;;;;;;;74.30;41.27;;;;;;;-0.23;100.00;100372.42;1482120;88;21770;-79
2023/12/20 02:36:19;;;;;;;91.77;45.10;;;;;;;-0.25;100.00;100368.59;1478759;88;21611;-80
2023/12/20 02:38:46;;;;;;;84.23;42.63;;;;;;;-0.25;100.00;100357.34;1482959;88;21487;-79
2023/12/20 02:41:13;;;;;;;87.50;42.13;;;;;;;-0.23;100.00;100354.22;1480340;88;21651;-79
2023/12/20 02:43:39;;;;;;;90.10;43.43;;;;;;;-0.21;100.00;100351.52;1460417;88;21562;-78
2023/12/20 02:46:05;;;;;;;84.03;43.27;;;;;;;-0.21;100.00;100354.95;1482276;88;22116;-80
2023/12/20 02:48:31;;;;;;;90.60;42.57;;;;;;;-0.23;100.00;100349.02;1482462;88;21695;-80
2023/12/20 02:50:58;;;;;;;79.57;45.07;;;;;;;-0.24;100.00;100353.81;1461975;88;22554;-78
2023/12/20 02:53:24;;;;;;;71.97;40.03;;;;;;;-0.25;100.00;100345.64;1476833;88;21631;-79
2023/12/20 02:55:50;;;;;;;81.17;41.27;;;;;;;-0.31;100.00;100339.47;1480110;88;21502;-79
2023/12/20 02:58:17;;;;;;;72.80;36.23;;;;;;;-0.31;100.00;100340.77;1478408;88;21495;-79
2023/12/20 03:00:44;;;;;;;87.77;39.93;;;;;;;-0.30;100.00;100335.94;1487559;88;21618;-79
2023/12/20 03:03:10;;;;;;;89.17;42.80;;;;;;;-0.30;100.00;100334.63;1475441;88;21747;-79
2023/12/20 03:05:36;;;;;;;75.30;39.10;;;;;;;-0.32;100.00;100328.66;1478833;88;21696;-79
2023/12/20 03:08:03;;;;;;;73.20;39.33;;;;;;;-0.33;100.00;100321.80;1471943;88;21799;-79
2023/12/20 03:10:29;;;;;;;69.10;39.27;;;;;;;-0.38;100.00;100315.98;1479592;88;21655;-79
2023/12/20 03:12:55;;;;;;;67.27;39.77;;;;;;;-0.42;100.00;100319.68;1456436;88;21519;-78
2023/12/20 03:15:21;;;;;;;77.00;40.83;;;;;;;-0.43;100.00;100321.88;1477503;88;22219;-78
2023/12/20 03:17:47;;;;;;;79.87;38.93;;;;;;;-0.51;100.00;100315.34;1465868;88;21829;-79
2023/12/20 03:20:13;;;;;;;58.30;32.33;;;;;;;-0.52;100.00;100312.37;1474183;88;22596;-78
2023/12/20 03:22:40;;;;;;;57.77;33.07;;;;;;;-0.57;100.00;100305.27;1474290;88;22554;-79
2023/12/20 03:25:07;;;;;;;65.47;35.27;;;;;;;-0.65;100.00;100299.61;1476627;88;21515;-79
2023/12/20 03:27:33;;;;;;;66.37;36.10;;;;;;;-0.71;100.00;100294.73;1480850;88;21828;-79
2023/12/20 03:29:59;;;;;;;62.37;36.87;;;;;;;-0.74;100.00;100292.30;1475779;88;21593;-79
2023/12/20 03:32:25;;;;;;;65.27;33.93;;;;;;;-0.71;100.00;100289.53;1481538;88;21465;-78
2023/12/20 03:34:51;;;;;;;73.07;38.30;;;;;;;-0.71;100.00;100286.94;1472502;88;21597;-79
2023/12/20 03:37:17;;;;;;;69.10;40.47;;;;;;;-0.71;100.00;100282.58;1476299;88;21736;-79
2023/12/20 03:39:43;;;;;;;66.13;37.97;;;;;;;-0.70;100.00;100280.81;1476632;88;22405;-79
2023/12/20 03:42:09;;;;;;;66.73;37.67;;;;;;;-0.72;100.00;100276.14;1475746;88;22708;-79
2023/12/20 03:44:40;;;;;;;61.70;37.23;;;;;;;-0.75;100.00;100264.61;1471852;88;21926;-79
2023/12/20 03:47:06;;;;;;;74.97;38.35;;;;;;;-0.70;100.00;100273.84;1475833;88;21534;-79
2023/12/20 03:49:32;;;;;;;71.57;35.50;;;;;;;-0.69;100.00;100272.95;1467007;88;21427;-79
2023/12/20 03:51:58;;;;;;;87.20;42.73;;;;;;;-0.71;100.00;100268.75;1474246;88;22615;-79
2023/12/20 03:54:25;;;;;;;65.30;36.93;;;;;;;-0.73;100.00;100277.07;1470682;88;21540;-81
2023/12/20 03:56:51;;;;;;;72.53;38.17;;;;;;;-0.73;100.00;100276.61;1472294;88;22251;-79
2023/12/20 03:59:18;;;;;;;72.83;40.73;;;;;;;-0.72;100.00;100278.74;1459248;88;21826;-79
2023/12/20 04:01:44;;;;;;;79.30;43.23;;;;;;;-0.70;100.00;100276.91;1470877;88;21762;-79
2023/12/20 04:04:13;;;;;;;60.30;34.87;;;;;;;-0.66;100.00;100273.25;1475002;88;21532;-78
2023/12/20 04:06:39;;;;;;;73.23;37.07;;;;;;;-0.66;100.00;100273.69;1474044;88;22432;-77
2023/12/20 04:09:06;;;;;;;65.10;38.33;;;;;;;-0.70;100.00;100272.55;1461625;88;21633;-78
2023/12/20 04:11:32;;;;;;;68.30;37.53;;;;;;;-0.70;100.00;100270.41;1471896;88;21822;-78
2023/12/20 04:13:58;;;;;;;63.67;37.40;;;;;;;-0.70;100.00;100264.75;1475547;88;21678;-78
2023/12/20 04:16:24;;;;;;;72.33;42.50;;;;;;;-0.70;100.00;100263.45;1472969;88;21565;-79
2023/12/20 04:18:50;;;;;;;87.83;41.90;;;;;;;-0.70;100.00;100261.31;1475554;88;21619;-78
2023/12/20 04:21:16;;;;;;;82.03;43.57;;;;;;;-0.70;100.00;100258.72;1482739;88;21613;-78
2023/12/20 04:23:42;;;;;;;80.77;44.83;;;;;;;-0.73;100.00;100257.11;1479412;88;22708;-79
2023/12/20 04:26:09;;;;;;;84.90;46.90;;;;;;;-0.73;100.00;100254.52;1475678;88;22707;-79
2023/12/20 04:28:35;;;;;;;79.27;44.20;;;;;;;-0.70;100.00;100259.55;1477208;88;21938;-80
2023/12/20 04:31:01;;;;;;;70.93;39.27;;;;;;;-0.70;100.00;100260.85;1473077;88;21755;-79
2023/12/20 04:33:27;;;;;;;78.27;45.57;;;;;;;-0.67;100.00;100258.55;1477824;88;21986;-79
2023/12/20 04:35:53;;;;;;;62.63;38.57;;;;;;;-0.70;100.00;100254.36;1475592;88;22754;-79
2023/12/20 04:38:20;;;;;;;86.47;44.97;;;;;;;-0.67;100.00;100253.82;1476743;88;21684;-79
2023/12/20 04:40:46;;;;;;;70.30;39.97;;;;;;;-0.66;100.00;100252.89;1481181;88;21700;-80
2023/12/20 04:43:12;;;;;;;80.20;42.10;;;;;;;-0.66;100.00;100248.99;1484112;88;21606;-79
2023/12/20 04:45:38;;;;;;;71.50;39.47;;;;;;;-0.66;100.00;100248.99;1469187;88;21914;-80
2023/12/20 04:48:05;;;;;;;74.53;42.80;;;;;;;-0.63;100.00;100243.20;1464591;88;22543;-79
2023/12/20 04:50:31;;;;;;;76.63;41.17;;;;;;;-0.61;100.00;100243.94;1474066;88;22736;-78
2023/12/20 04:52:57;;;;;;;88.50;41.90;;;;;;;-0.57;100.00;100239.44;1470319;88;22222;-80
2023/12/20 04:55:24;;;;;;;82.53;41.00;;;;;;;-0.59;100.00;100243.40;1474597;88;21808;-80
2023/12/20 04:57:50;;;;;;;74.90;41.73;;;;;;;-0.59;100.00;100246.00;1465397;88;21578;-80
2023/12/20 05:00:17;;;;;;;66.63;37.77;;;;;;;-0.64;100.00;100246.70;1473380;88;21770;-80
2023/12/20 05:02:43;;;;;;;72.53;36.83;;;;;;;-0.77;100.00;100243.08;1481073;88;21738;-79
2023/12/20 05:05:09;;;;;;;65.17;36.20;;;;;;;-0.83;100.00;100247.30;1478514;88;21641;-79
2023/12/20 05:07:36;;;;;;;65.60;35.40;;;;;;;-0.88;100.00;100253.19;1482655;88;21827;-78
2023/12/20 05:10:04;;;;;;;55.17;32.13;;;;;;;-0.92;100.00;100253.34;1477407;88;22529;-78
2023/12/20 05:12:30;;;;;;;58.80;32.00;;;;;;;-0.97;100.00;100254.03;1482795;88;21664;-78
2023/12/20 05:14:58;;;;;;;72.07;38.30;;;;;;;-1.00;100.00;100245.10;1477546;88;21577;-79
2023/12/20 05:17:24;;;;;;;66.70;39.33;;;;;;;-1.01;100.00;100244.70;1482273;88;21651;-78
2023/12/20 05:19:50;;;;;;;64.03;34.77;;;;;;;-0.97;100.00;100240.21;1488376;88;21476;-79
2023/12/20 05:22:17;;;;;;;62.70;36.33;;;;;;;-1.02;100.00;100238.30;1473211;88;21480;-79
2023/12/20 05:24:43;;;;;;;77.10;40.20;;;;;;;-1.05;100.00;100243.19;1484437;88;22150;-79
2023/12/20 05:27:09;;;;;;;65.53;35.83;;;;;;;-1.05;100.00;100236.70;1466989;88;22642;-79
2023/12/20 05:29:35;;;;;;;62.30;35.93;;;;;;;-1.03;100.00;100240.06;1480192;88;21672;-79
2023/12/20 05:32:04;;;;;;;63.97;35.73;;;;;;;-1.06;100.00;100233.73;1480462;88;21619;-78
2023/12/20 05:34:31;;;;;;;82.10;42.23;;;;;;;-1.11;100.00;100230.98;1476277;88;21494;-78
2023/12/20 05:36:58;;;;;;;65.67;36.77;;;;;;;-1.07;100.00;100222.10;1481559;88;21599;-79
2023/12/20 05:39:24;;;;;;;78.47;40.80;;;;;;;-0.99;100.00;100218.66;1481447;88;21561;-78
2023/12/20 05:41:50;;;;;;;88.07;44.23;;;;;;;-0.93;100.00;100208.78;1457774;88;21658;-79
2023/12/20 05:44:16;;;;;;;88.13;40.47;;;;;;;-0.84;100.00;100207.45;1486948;88;21437;-79
2023/12/20 05:46:43;;;;;;;81.47;43.10;;;;;;;-0.78;100.00;100198.50;1474809;88;22706;-78
2023/12/20 05:49:10;;;;;;;78.03;42.73;;;;;;;-0.77;100.00;100189.34;1475277;88;21800;-78
2023/12/20 05:51:36;;;;;;;84.50;44.13;;;;;;;-0.71;100.00;100185.58;1451703;88;21789;-78
2023/12/20 05:54:04;;;;;;;76.20;39.60;;;;;;;-0.68;100.00;100180.22;1483014;88;21611;-78
2023/12/20 05:56:30;;;;;;;70.20;38.80;;;;;;;-0.65;100.00;100190.44;1482869;88;21709;-77
2023/12/20 05:58:56;;;;;;;74.17;39.20;;;;;;;-0.67;100.00;100192.28;1477696;88;21523;-77
2023/12/20 06:01:22;;;;;;;76.37;40.73;;;;;;;-0.66;100.00;100188.78;1478514;88;22622;-78
2023/12/20 06:03:49;;;;;;;74.53;40.17;;;;;;;-0.69;100.00;100182.44;1473550;88;21832;-78
2023/12/20 06:06:15;;;;;;;93.90;50.17;;;;;;;-0.68;100.00;100185.41;1477404;88;21445;-77
2023/12/20 06:08:43;;;;;;;79.83;43.30;;;;;;;-0.67;100.00;100181.88;1471846;88;21598;-76
2023/12/20 06:11:09;;;;;;;90.43;47.60;;;;;;;-0.65;100.00;100180.05;1471628;88;21711;-77
2023/12/20 06:13:35;;;;;;;83.47;43.67;;;;;;;-0.61;100.00;100174.22;1479367;88;21701;-80
2023/12/20 06:16:02;;;;;;;83.07;43.53;;;;;;;-0.61;100.00;100171.15;1481995;88;21720;-79
2023/12/20 06:18:28;;;;;;;77.83;41.90;;;;;;;-0.59;100.00;100168.48;1472666;88;22654;-79
2023/12/20 06:20:55;;;;;;;78.10;41.13;;;;;;;-0.60;100.00;100162.45;1478580;88;21661;-79
2023/12/20 06:23:21;;;;;;;74.83;40.23;;;;;;;-0.62;100.00;100158.25;1471592;88;21656;-79
2023/12/20 06:25:47;;;;;;;75.53;38.70;;;;;;;-0.68;100.00;100164.62;1452845;88;21680;-79
2023/12/20 06:28:14;;;;;;;74.63;38.43;;;;;;;-0.71;100.00;100170.81;1471807;88;21473;-80
2023/12/20 06:30:41;;;;;;;72.83;40.27;;;;;;;-0.73;100.00;100176.55;1471062;88;22547;-79
2023/12/20 06:33:07;;;;;;;72.43;37.83;;;;;;;-0.77;100.00;100159.92;1474193;88;21611;-77
2023/12/20 06:35:33;;;;;;;67.73;37.50;;;;;;;-0.79;100.00;100151.36;1476260;88;21541;-76
2023/12/20 06:38:01;;;;;;;73.27;38.77;;;;;;;-0.86;100.00;100144.80;1473962;88;21637;-76
2023/12/20 06:40:27;;;;;;;94.00;46.47;;;;;;;-0.95;100.00;100150.88;1470464;88;22406;-77
2023/12/20 06:42:54;;;;;;;93.33;44.93;;;;;;;-1.01;100.00;100157.67;1472077;88;21579;-77
2023/12/20 06:45:20;;;;;;;92.03;44.67;;;;;;;-1.04;100.00;100168.69;1487264;88;22354;-77
2023/12/20 06:47:46;;;;;;;88.07;44.57;;;;;;;-1.10;100.00;100160.76;1480398;88;21994;-76
2023/12/20 06:50:12;;;;;;;75.50;40.47;;;;;;;-1.08;100.00;100155.50;1478903;88;21559;-76
2023/12/20 06:52:39;;;;;;;67.73;37.67;;;;;;;-1.06;100.00;100157.10;1474410;88;22410;-76
2023/12/20 06:55:05;;;;;;;73.90;39.70;;;;;;;-1.03;100.00;100162.13;1477395;88;21613;-77
2023/12/20 06:57:32;;;;;;;71.57;38.83;;;;;;;-1.01;100.00;100143.85;1474866;88;21683;-77
2023/12/20 07:00:00;;;;;;;77.43;41.53;;;;;;;-1.01;100.00;100143.39;1469920;88;22554;-77
2023/12/20 07:02:29;;;;;;;73.40;40.13;;;;;;;-1.04;100.00;100137.05;1481865;88;21472;-77
2023/12/20 07:04:55;;;;;;;72.83;39.83;;;;;;;-1.04;100.00;100137.05;1479425;88;21910;-80
2023/12/20 07:07:23;;;;;;;69.43;39.03;;;;;;;-1.04;100.00;100129.73;1475481;88;21666;-79
2023/12/20 07:09:49;;;;;;;74.63;39.77;;;;;;;-1.07;100.00;100124.70;1465370;88;22545;-79
2023/12/20 07:12:16;;;;;;;71.77;38.00;;;;;;;-1.09;100.00;100126.09;1473881;88;21641;-80
2023/12/20 07:14:42;;;;;;;68.73;36.60;;;;;;;-1.14;100.00;100120.30;1476265;88;21682;-78
2023/12/20 07:17:11;;;;;;;67.33;37.00;;;;;;;-1.14;100.00;100119.00;1475547;88;21713;-78
2023/12/20 07:19:36;;;;;;;66.93;39.23;;;;;;;-1.13;100.00;100105.08;1468267;88;21525;-78
2023/12/20 07:22:03;;;;;;;71.07;41.80;;;;;;;-1.12;100.00;100102.88;1470048;88;21795;-79
2023/12/20 07:24:30;;;;;;;75.90;44.47;;;;;;;-1.13;100.00;100090.80;1480580;88;21645;-78
2023/12/20 07:26:56;;;;;;;78.27;45.80;;;;;;;-1.09;100.00;100088.87;1469334;88;22663;-79
2023/12/20 07:29:22;;;;;;;78.40;44.40;;;;;;;-1.19;100.00;100115.80;1476636;88;21587;-79
2023/12/20 07:31:48;;;;;;;70.47;40.53;;;;;;;-1.19;100.00;100115.80;1476032;88;22375;-78
2023/12/20 07:34:14;;;;;;;66.20;38.27;;;;;;;-1.17;100.00;100125.66;1484547;88;21560;-78
2023/12/20 07:36:40;;;;;;;69.13;39.77;;;;;;;-1.15;100.00;100129.02;1473851;88;21720;-79
2023/12/20 07:39:07;;;;;;;66.40;37.93;;;;;;;-1.17;100.00;100130.84;1475746;88;21637;-78
2023/12/20 07:41:33;;;;;;;64.97;38.77;;;;;;;-1.17;100.00;100137.34;1473583;88;21807;-79
2023/12/20 07:43:59;;;;;;;63.17;37.60;;;;;;;-1.16;100.00;100145.50;1482780;88;21672;-79
2023/12/20 07:46:26;;;;;;;59.00;35.93;;;;;;;-1.10;100.00;100138.68;1465714;88;22640;-79
2023/12/20 07:48:52;;;;;;;65.50;38.50;;;;;;;-1.06;100.00;100132.42;1475091;88;21666;-79
2023/12/20 07:51:18;;;;;;;73.60;42.40;;;;;;;-1.08;100.00;100134.72;1459049;88;21670;-78
2023/12/20 07:53:45;;;;;;;79.40;45.73;;;;;;;-1.07;100.00;100139.81;1474812;88;21789;-79
2023/12/20 07:56:19;;;;;;;63.40;38.07;;;;;;;-1.00;100.00;100131.27;1472581;88;21626;-79
2023/12/20 07:58:48;;;;;;;61.83;35.30;;;;;;;-0.92;100.00;100125.20;1471912;88;21872;-79
2023/12/20 08:01:18;;;;;;;63.07;36.43;;;;;;;-0.85;100.00;100125.70;1472024;88;21561;-79
2023/12/20 08:03:44;;;;;;;58.77;35.60;;;;;;;-0.81;100.00;100135.00;1475265;88;21739;-80
2023/12/20 08:06:10;;;;;;;62.00;35.63;;;;;;;-0.77;100.00;100136.53;1452730;88;22594;-78
2023/12/20 08:08:37;;;;;;;77.63;43.13;;;;;;;-0.73;100.00;100134.97;1483930;88;21761;-78
2023/12/20 08:11:03;;;;;;;79.53;43.90;;;;;;;-0.70;100.00;100137.86;1473289;88;21843;-79
2023/12/20 08:13:29;;;;;;;102.40;53.60;;;;;;;-0.78;100.00;100134.84;1477388;88;21620;-78
2023/12/20 08:15:56;;;;;;;117.20;65.57;;;;;;;-0.72;100.00;100131.90;1453186;88;21568;-78
2023/12/20 08:18:23;;;;;;;91.77;50.13;;;;;;;-0.64;100.00;100131.03;1474472;88;21945;-78
2023/12/20 08:20:49;;;;;;;75.80;43.43;;;;;;;-0.66;100.00;100130.73;1483546;88;21673;-78
2023/12/20 08:23:16;;;;;;;73.03;40.63;;;;;;;-0.61;100.00;100126.13;1480994;88;21600;-78
2023/12/20 08:25:42;;;;;;;89.47;48.60;;;;;;;-0.67;100.00;100129.06;1488809;88;21554;-78
2023/12/20 08:28:08;;;;;;;84.07;48.53;;;;;;;-0.69;100.00;100131.77;1488823;88;21633;-78
2023/12/20 08:30:34;;;;;;;90.83;48.47;;;;;;;-0.67;100.00;100126.47;1482680;88;21615;-78
2023/12/20 08:33:01;;;;;;;106.67;60.47;;;;;;;-0.64;100.00;100128.89;1483303;88;21510;-78
2023/12/20 08:35:27;;;;;;;82.17;44.60;;;;;;;-0.65;100.00;100125.46;1481798;88;22477;-78
2023/12/20 08:37:53;;;;;;;75.90;41.10;;;;;;;-0.62;100.00;100127.06;1482038;88;22195;-77
2023/12/20 08:40:20;;;;;;;83.43;44.57;;;;;;;-0.70;100.00;100127.00;1480604;88;21672;-78
2023/12/20 08:42:46;;;;;;;84.73;45.10;;;;;;;-0.63;100.00;100122.33;1481479;88;21632;-78
2023/12/20 08:45:12;;;;;;;89.17;45.47;;;;;;;-0.56;100.00;100122.82;1478693;88;22670;-78
2023/12/20 08:47:40;;;;;;;79.40;43.23;;;;;;;-0.50;100.00;100120.71;1478948;88;21789;-77
2023/12/20 08:50:08;;;;;;;94.03;48.43;;;;;;;-0.45;100.00;100125.67;1480343;88;22492;-78
2023/12/20 08:52:34;;;;;;;88.97;46.43;;;;;;;-0.47;100.00;100128.34;1478196;88;21717;-77
2023/12/20 08:55:00;;;;;;;94.60;48.17;;;;;;;-0.43;100.00;100122.97;1474077;88;21659;-79
2023/12/20 08:57:26;;;;;;;99.17;50.17;;;;;;;-0.33;100.00;100123.68;1473959;88;21511;-79
2023/12/20 08:59:53;;;;;;;89.73;45.77;;;;;;;-0.24;100.00;100115.36;1476432;88;21495;-79
2023/12/20 09:02:19;;;;;;;88.73;44.47;;;;;;;-0.13;100.00;100108.72;1481483;88;21791;-80
2023/12/20 09:04:45;;;;;;;86.67;43.53;;;;;;;-0.12;100.00;100106.02;1471583;88;21687;-79
2023/12/20 09:07:24;;;;;;;96.90;49.07;;;;;;;-0.02;100.00;100107.19;1470338;88;21625;-79
2023/12/20 09:09:50;;;;;;;93.50;46.07;;;;;;;0.04;100.00;100110.36;1485128;88;21806;-79
2023/12/20 09:12:21;;;;;;;92.93;44.27;;;;;;;-0.04;100.00;100111.63;1448017;88;21686;-79
2023/12/20 09:14:48;;;;;;;96.37;48.13;;;;;;;-0.04;100.00;100111.63;1473565;88;22886;-79
2023/12/20 09:17:16;;;;;;;121.17;64.40;;;;;;;-0.09;100.00;100101.94;1470746;88;21617;-78
2023/12/20 09:19:43;;;;;;;93.57;50.30;;;;;;;-0.08;100.00;100098.43;1476919;88;22139;-78
2023/12/20 09:22:10;;;;;;;99.10;53.03;;;;;;;-0.07;100.00;100092.29;1480457;88;22652;-77
2023/12/20 09:24:36;;;;;;;92.43;49.07;;;;;;;-0.01;100.00;100091.94;1471985;88;21545;-77
2023/12/20 09:27:03;;;;;;;89.23;48.17;;;;;;;0.05;100.00;100075.59;1454847;88;21710;-78
2023/12/20 09:29:29;;;;;;;106.07;52.87;;;;;;;0.13;100.00;100066.89;1474548;88;22246;-79
2023/12/20 09:31:57;;;;;;;93.63;46.83;;;;;;;0.21;100.00;100050.36;1472394;88;22684;-78
2023/12/20 09:34:25;;;;;;;97.93;48.50;;;;;;;0.21;100.00;100050.36;1469022;88;21790;-78
2023/12/20 09:36:52;;;;;;;90.80;46.13;;;;;;;0.27;100.00;100040.88;1471095;88;21805;-78
2023/12/20 09:39:21;;;;;;;89.40;45.90;;;;;;;0.42;100.00;100027.41;1453470;88;21813;-76
2023/12/20 09:41:55;;;;;;;94.87;49.40;;;;;;;0.42;100.00;100027.41;1469996;88;21871;-78
2023/12/20 09:44:23;;;;;;;88.67;44.27;;;;;;;0.54;100.00;100023.22;1473428;88;23054;-78
2023/12/20 09:46:53;;;;;;;94.00;46.97;;;;;;;0.63;100.00;100013.53;1473921;88;21966;-79
2023/12/20 09:49:20;;;;;;;92.30;47.33;;;;;;;0.73;100.00;100018.56;1394598;88;21978;-78
2023/12/20 09:51:47;;;;;;;95.27;47.40;;;;;;;0.63;100.00;100009.19;1404241;88;21849;-78
2023/12/20 09:54:15;;;;;;;95.83;46.47;;;;;;;0.63;100.00;100009.19;1397844;88;21950;-78
2023/12/20 09:56:41;;;;;;;94.23;47.57;;;;;;;0.70;100.00;100008.33;1396120;88;22598;-79
2023/12/20 09:59:08;;;;;;;104.10;51.50;;;;;;;0.72;100.00;100000.41;1404661;88;21884;-79
2023/12/20 10:01:35;;;;;;;105.37;51.27;;;;;;;0.74;100.00;100000.69;1559101;88;21594;-78
2023/12/20 10:04:08;;;;;;;110.60;56.23;;;;;;;0.79;100.00;99996.50;1403556;88;21785;-78
2023/12/20 10:06:33;;;;;;;100.00;50.93;;;;;;;0.79;100.00;99996.50;1558859;88;22705;-78
2023/12/20 10:08:59;;;;;;;105.20;50.83;;;;;;;1.01;100.00;99982.97;1404339;88;21988;-79
2023/12/20 10:11:26;;;;;;;105.10;54.07;;;;;;;1.03;100.00;99982.39;1398574;88;21912;-78
2023/12/20 10:13:52;;;;;;;101.77;51.67;;;;;;;1.03;100.00;99982.39;1398630;88;21997;-78
2023/12/20 10:16:22;;;;;;;95.53;50.27;;;;;;;1.11;100.00;99984.05;1398785;88;22951;-78
2023/12/20 10:18:48;;;;;;;103.90;51.90;;;;;;;1.16;100.00;99971.55;1551293;88;22121;-81
2023/12/20 10:21:15;;;;;;;95.83;49.67;;;;;;;1.19;100.00;99955.72;1398451;88;21913;-77
2023/12/20 10:23:41;;;;;;;92.60;49.23;;;;;;;1.13;100.00;99941.78;1398437;88;22763;-80
2023/12/20 10:26:07;;;;;;;99.83;54.33;;;;;;;1.13;100.00;99941.78;1398578;88;21979;-79
2023/12/20 10:28:34;;;;;;;101.53;53.13;;;;;;;1.07;100.00;99934.36;1399019;88;22114;-77
2023/12/20 10:31:00;;;;;;;90.60;47.37;;;;;;;1.06;100.00;99908.52;1384086;89;22002;-78
2023/12/20 10:33:35;;;;;;;104.70;51.07;;;;;;;0.97;100.00;99908.52;1404459;88;22126;-76
2023/12/20 10:35:59;;;;;;;91.73;49.43;;;;;;;1.02;100.00;99903.84;1557763;88;22008;-75
2023/12/20 10:38:25;;;;;;;101.07;50.73;;;;;;;1.00;100.00;99909.62;1398570;88;22119;-76
2023/12/20 10:40:57;;;;;;;102.63;51.63;;;;;;;0.98;100.00;99928.41;1405206;88;21944;-75
2023/12/20 10:43:26;;;;;;;100.07;52.57;;;;;;;0.98;100.00;99928.41;1559046;88;21908;-75
2023/12/20 10:45:52;;;;;;;89.57;47.63;;;;;;;0.95;100.00;99935.13;1395808;88;22099;-75
2023/12/20 10:48:21;;;;;;;95.77;51.17;;;;;;;0.92;100.00;99939.23;1398209;88;21978;-76
2023/12/20 10:50:47;;;;;;;100.97;53.57;;;;;;;0.95;100.00;99937.73;1401958;88;22195;-75
2023/12/20 10:53:14;;;;;;;101.60;55.43;;;;;;;0.95;100.00;99937.73;1398179;88;21938;-76
2023/12/20 10:55:43;;;;;;;122.97;59.50;;;;;;;0.97;100.00;99938.48;1397409;88;23040;-75
2023/12/20 10:58:10;;;;;;;92.27;50.17;;;;;;;1.02;100.00;99928.61;1403497;88;22040;-76